sensor_id;sensor_type;location;lat;lon;timestamp;temperature;humidity
34147;DHT22;20423;49.448;9.056;2023-03-14T00:00:30;7.30;99.90
34147;DHT22;20423;49.448;9.056;2023-03-14T00:02:55;7.20;99.90
34147;DHT22;20423;49.448;9.056;2023-03-14T00:05:21;7.30;99.90
34147;DHT22;20423;49.448;9.056;2023-03-14T00:07:47;7.30;99.90
34147;DHT22;20423;49.448;9.056;2023-03-14T00:10:14;7.20;99.90
34147;DHT22;20423;49.448;9.056;2023-03-14T00:12:41;7.20;99.90
34147;DHT22;20423;49.448;9.056;2023-03-14T00:15:07;7.20;99.90
34147;DHT22;20423;49.448;9.056;2023-03-14T00:17:34;7.20;99.90
34147;DHT22;20423;49.448;9.056;2023-03-14T00:20:31;7.20;99.90
34147;DHT22;20423;49.448;9.056;2023-03-14T00:22:57;7.20;99.90
34147;DHT22;20423;49.448;9.056;2023-03-14T00:25:23;7.20;99.90
34147;DHT22;20423;49.448;9.056;2023-03-14T00:27:50;7.10;99.90
34147;DHT22;20423;49.448;9.056;2023-03-14T00:30:17;7.10;99.90
34147;DHT22;20423;49.448;9.056;2023-03-14T00:32:43;7.20;99.90
34147;DHT22;20423;49.448;9.056;2023-03-14T00:35:08;7.20;99.90
34147;DHT22;20423;49.448;9.056;2023-03-14T00:37:34;7.20;99.90
34147;DHT22;20423;49.448;9.056;2023-03-14T00:40:00;7.10;99.90
34147;DHT22;20423;49.448;9.056;2023-03-14T00:42:26;7.10;99.90
34147;DHT22;20423;49.448;9.056;2023-03-14T00:44:51;7.10;99.90
34147;DHT22;20423;49.448;9.056;2023-03-14T00:47:17;7.10;99.90
34147;DHT22;20423;49.448;9.056;2023-03-14T00:49:43;7.20;99.90
34147;DHT22;20423;49.448;9.056;2023-03-14T00:52:09;7.20;99.90
34147;DHT22;20423;49.448;9.056;2023-03-14T00:54:35;7.20;99.90
34147;DHT22;20423;49.448;9.056;2023-03-14T00:57:00;7.30;99.90
34147;DHT22;20423;49.448;9.056;2023-03-14T00:59:32;7.20;99.90
34147;DHT22;20423;49.448;9.056;2023-03-14T01:01:58;7.30;99.90
34147;DHT22;20423;49.448;9.056;2023-03-14T01:04:24;7.30;99.90
34147;DHT22;20423;49.448;9.056;2023-03-14T01:06:49;7.30;99.90
34147;DHT22;20423;49.448;9.056;2023-03-14T01:09:15;7.30;99.90
34147;DHT22;20423;49.448;9.056;2023-03-14T01:11:43;7.30;99.90
34147;DHT22;20423;49.448;9.056;2023-03-14T01:14:12;7.30;99.90
34147;DHT22;20423;49.448;9.056;2023-03-14T01:16:37;7.30;99.90
34147;DHT22;20423;49.448;9.056;2023-03-14T01:19:03;7.40;99.90
34147;DHT22;20423;49.448;9.056;2023-03-14T01:21:32;7.40;99.90
34147;DHT22;20423;49.448;9.056;2023-03-14T01:23:59;7.40;99.90
34147;DHT22;20423;49.448;9.056;2023-03-14T01:26:27;7.40;99.90
34147;DHT22;20423;49.448;9.056;2023-03-14T01:28:55;7.40;99.90
34147;DHT22;20423;49.448;9.056;2023-03-14T01:31:22;7.40;99.90
34147;DHT22;20423;49.448;9.056;2023-03-14T01:33:48;7.40;99.90
34147;DHT22;20423;49.448;9.056;2023-03-14T01:36:15;7.40;99.90
34147;DHT22;20423;49.448;9.056;2023-03-14T01:38:42;7.50;99.90
34147;DHT22;20423;49.448;9.056;2023-03-14T01:41:16;7.50;99.90
34147;DHT22;20423;49.448;9.056;2023-03-14T01:43:43;7.50;99.90
34147;DHT22;20423;49.448;9.056;2023-03-14T01:46:19;7.50;99.90
34147;DHT22;20423;49.448;9.056;2023-03-14T01:51:30;7.60;99.90
34147;DHT22;20423;49.448;9.056;2023-03-14T01:54:16;7.60;99.90
34147;DHT22;20423;49.448;9.056;2023-03-14T01:56:45;7.50;99.90
34147;DHT22;20423;49.448;9.056;2023-03-14T01:59:12;7.50;99.90
34147;DHT22;20423;49.448;9.056;2023-03-14T02:01:41;7.50;99.90
34147;DHT22;20423;49.448;9.056;2023-03-14T02:04:08;7.50;99.90
34147;DHT22;20423;49.448;9.056;2023-03-14T02:07:10;7.50;99.90
34147;DHT22;20423;49.448;9.056;2023-03-14T02:09:43;7.50;99.90
34147;DHT22;20423;49.448;9.056;2023-03-14T02:12:20;7.50;99.90
34147;DHT22;20423;49.448;9.056;2023-03-14T02:14:51;7.50;99.90
34147;DHT22;20423;49.448;9.056;2023-03-14T02:17:42;7.50;99.90
34147;DHT22;20423;49.448;9.056;2023-03-14T02:20:53;7.50;99.90
34147;DHT22;20423;49.448;9.056;2023-03-14T02:23:49;7.50;99.90
34147;DHT22;20423;49.448;9.056;2023-03-14T02:26:27;7.50;99.90
34147;DHT22;20423;49.448;9.056;2023-03-14T02:28:53;7.50;99.90
34147;DHT22;20423;49.448;9.056;2023-03-14T02:31:20;7.50;99.90
34147;DHT22;20423;49.448;9.056;2023-03-14T02:33:48;7.50;99.90
34147;DHT22;20423;49.448;9.056;2023-03-14T02:36:15;7.50;99.90
34147;DHT22;20423;49.448;9.056;2023-03-14T02:41:49;7.60;99.90
34147;DHT22;20423;49.448;9.056;2023-03-14T02:44:16;7.60;99.90
34147;DHT22;20423;49.448;9.056;2023-03-14T02:46:42;7.60;99.90
34147;DHT22;20423;49.448;9.056;2023-03-14T02:49:10;7.60;99.90
34147;DHT22;20423;49.448;9.056;2023-03-14T02:51:38;7.50;99.90
34147;DHT22;20423;49.448;9.056;2023-03-14T02:54:05;7.50;99.90
34147;DHT22;20423;49.448;9.056;2023-03-14T02:56:31;7.50;99.90
34147;DHT22;20423;49.448;9.056;2023-03-14T02:58:58;7.50;99.90
34147;DHT22;20423;49.448;9.056;2023-03-14T03:01:34;7.50;99.90
34147;DHT22;20423;49.448;9.056;2023-03-14T03:03:59;7.60;99.90
34147;DHT22;20423;49.448;9.056;2023-03-14T03:06:25;7.50;99.90
34147;DHT22;20423;49.448;9.056;2023-03-14T03:08:52;7.60;99.90
34147;DHT22;20423;49.448;9.056;2023-03-14T03:11:18;7.50;99.90
34147;DHT22;20423;49.448;9.056;2023-03-14T03:13:43;7.60;99.90
34147;DHT22;20423;49.448;9.056;2023-03-14T03:16:09;7.60;99.90
34147;DHT22;20423;49.448;9.056;2023-03-14T03:18:35;7.60;99.90
34147;DHT22;20423;49.448;9.056;2023-03-14T03:21:04;7.60;99.90
34147;DHT22;20423;49.448;9.056;2023-03-14T03:23:31;7.60;99.90
34147;DHT22;20423;49.448;9.056;2023-03-14T03:25:57;7.60;99.90
34147;DHT22;20423;49.448;9.056;2023-03-14T03:28:22;7.60;99.90
34147;DHT22;20423;49.448;9.056;2023-03-14T03:30:50;7.60;99.90
34147;DHT22;20423;49.448;9.056;2023-03-14T03:33:15;7.60;99.90
34147;DHT22;20423;49.448;9.056;2023-03-14T03:35:45;7.60;99.90
34147;DHT22;20423;49.448;9.056;2023-03-14T03:38:12;7.50;99.90
34147;DHT22;20423;49.448;9.056;2023-03-14T03:40:38;7.50;99.90
34147;DHT22;20423;49.448;9.056;2023-03-14T03:43:06;7.50;99.90
34147;DHT22;20423;49.448;9.056;2023-03-14T03:45:45;7.40;99.90
34147;DHT22;20423;49.448;9.056;2023-03-14T03:48:10;7.50;99.90
34147;DHT22;20423;49.448;9.056;2023-03-14T03:50:36;7.50;99.90
34147;DHT22;20423;49.448;9.056;2023-03-14T03:53:02;7.40;99.90
34147;DHT22;20423;49.448;9.056;2023-03-14T03:55:28;7.40;99.90
34147;DHT22;20423;49.448;9.056;2023-03-14T03:57:54;7.40;99.90
34147;DHT22;20423;49.448;9.056;2023-03-14T04:00:19;7.40;99.90
34147;DHT22;20423;49.448;9.056;2023-03-14T04:02:47;7.40;99.90
34147;DHT22;20423;49.448;9.056;2023-03-14T04:05:16;7.30;99.90
34147;DHT22;20423;49.448;9.056;2023-03-14T04:07:49;7.30;99.90
34147;DHT22;20423;49.448;9.056;2023-03-14T04:10:21;7.30;99.90
34147;DHT22;20423;49.448;9.056;2023-03-14T04:13:25;7.20;99.90
34147;DHT22;20423;49.448;9.056;2023-03-14T04:15:54;7.20;99.90
34147;DHT22;20423;49.448;9.056;2023-03-14T04:18:24;7.20;99.90
34147;DHT22;20423;49.448;9.056;2023-03-14T04:20:54;7.10;99.90
34147;DHT22;20423;49.448;9.056;2023-03-14T04:23:24;7.20;99.90
34147;DHT22;20423;49.448;9.056;2023-03-14T04:25:51;7.20;99.90
34147;DHT22;20423;49.448;9.056;2023-03-14T04:28:17;7.20;99.90
34147;DHT22;20423;49.448;9.056;2023-03-14T04:30:43;7.20;99.90
34147;DHT22;20423;49.448;9.056;2023-03-14T04:33:12;7.20;99.90
34147;DHT22;20423;49.448;9.056;2023-03-14T04:35:46;7.20;99.90
34147;DHT22;20423;49.448;9.056;2023-03-14T04:38:16;7.20;99.90
34147;DHT22;20423;49.448;9.056;2023-03-14T04:40:44;7.20;99.90
34147;DHT22;20423;49.448;9.056;2023-03-14T04:43:12;7.20;99.90
34147;DHT22;20423;49.448;9.056;2023-03-14T04:45:45;7.20;99.90
34147;DHT22;20423;49.448;9.056;2023-03-14T04:48:11;7.20;99.90
34147;DHT22;20423;49.448;9.056;2023-03-14T04:50:39;7.20;99.90
34147;DHT22;20423;49.448;9.056;2023-03-14T04:53:05;7.20;99.90
34147;DHT22;20423;49.448;9.056;2023-03-14T04:55:32;7.20;99.90
34147;DHT22;20423;49.448;9.056;2023-03-14T04:57:59;7.30;99.90
34147;DHT22;20423;49.448;9.056;2023-03-14T05:00:25;7.20;99.90
34147;DHT22;20423;49.448;9.056;2023-03-14T05:03:04;7.20;99.90
34147;DHT22;20423;49.448;9.056;2023-03-14T05:05:47;7.20;99.90
34147;DHT22;20423;49.448;9.056;2023-03-14T05:08:35;7.20;99.90
34147;DHT22;20423;49.448;9.056;2023-03-14T05:11:32;7.20;99.90
34147;DHT22;20423;49.448;9.056;2023-03-14T05:14:18;7.20;99.90
34147;DHT22;20423;49.448;9.056;2023-03-14T05:17:14;7.20;99.90
34147;DHT22;20423;49.448;9.056;2023-03-14T05:19:58;7.20;99.90
34147;DHT22;20423;49.448;9.056;2023-03-14T05:22:23;7.10;99.90
34147;DHT22;20423;49.448;9.056;2023-03-14T05:25:17;7.10;99.90
34147;DHT22;20423;49.448;9.056;2023-03-14T05:28:00;7.10;99.90
34147;DHT22;20423;49.448;9.056;2023-03-14T05:30:53;7.20;99.90
34147;DHT22;20423;49.448;9.056;2023-03-14T05:33:41;7.20;99.90
34147;DHT22;20423;49.448;9.056;2023-03-14T05:36:13;7.20;99.90
34147;DHT22;20423;49.448;9.056;2023-03-14T05:38:41;7.30;99.90
34147;DHT22;20423;49.448;9.056;2023-03-14T05:41:24;7.30;99.90
34147;DHT22;20423;49.448;9.056;2023-03-14T05:44:16;7.20;99.90
34147;DHT22;20423;49.448;9.056;2023-03-14T05:47:20;7.20;99.90
34147;DHT22;20423;49.448;9.056;2023-03-14T05:50:04;7.10;99.90
34147;DHT22;20423;49.448;9.056;2023-03-14T05:52:42;7.10;99.90
34147;DHT22;20423;49.448;9.056;2023-03-14T05:55:19;7.10;99.90
34147;DHT22;20423;49.448;9.056;2023-03-14T05:57:47;7.20;99.90
34147;DHT22;20423;49.448;9.056;2023-03-14T06:00:35;7.20;99.90
34147;DHT22;20423;49.448;9.056;2023-03-14T06:03:26;7.20;99.90
34147;DHT22;20423;49.448;9.056;2023-03-14T06:05:55;7.20;99.90
34147;DHT22;20423;49.448;9.056;2023-03-14T06:08:35;7.20;99.90
34147;DHT22;20423;49.448;9.056;2023-03-14T06:11:03;7.10;99.90
34147;DHT22;20423;49.448;9.056;2023-03-14T06:13:30;7.10;99.90
34147;DHT22;20423;49.448;9.056;2023-03-14T06:15:56;7.10;99.90
34147;DHT22;20423;49.448;9.056;2023-03-14T06:18:21;7.20;99.90
34147;DHT22;20423;49.448;9.056;2023-03-14T06:20:47;7.20;99.90
34147;DHT22;20423;49.448;9.056;2023-03-14T06:23:21;7.30;99.90
34147;DHT22;20423;49.448;9.056;2023-03-14T06:25:47;7.40;99.90
34147;DHT22;20423;49.448;9.056;2023-03-14T06:28:13;7.40;99.90
34147;DHT22;20423;49.448;9.056;2023-03-14T06:30:38;7.30;99.90
34147;DHT22;20423;49.448;9.056;2023-03-14T06:33:06;7.40;99.90
34147;DHT22;20423;49.448;9.056;2023-03-14T06:35:31;7.40;99.90
34147;DHT22;20423;49.448;9.056;2023-03-14T06:37:57;7.40;99.90
34147;DHT22;20423;49.448;9.056;2023-03-14T06:40:23;7.40;99.90
34147;DHT22;20423;49.448;9.056;2023-03-14T06:42:59;7.50;99.90
34147;DHT22;20423;49.448;9.056;2023-03-14T06:45:27;7.50;99.90
34147;DHT22;20423;49.448;9.056;2023-03-14T06:47:54;7.50;99.90
34147;DHT22;20423;49.448;9.056;2023-03-14T06:50:24;7.50;99.90
34147;DHT22;20423;49.448;9.056;2023-03-14T06:52:50;7.60;99.90
34147;DHT22;20423;49.448;9.056;2023-03-14T06:55:20;7.60;99.90
34147;DHT22;20423;49.448;9.056;2023-03-14T06:57:46;7.60;99.90
34147;DHT22;20423;49.448;9.056;2023-03-14T07:00:12;7.60;99.90
34147;DHT22;20423;49.448;9.056;2023-03-14T07:02:41;7.70;99.90
34147;DHT22;20423;49.448;9.056;2023-03-14T07:05:14;7.80;99.90
34147;DHT22;20423;49.448;9.056;2023-03-14T07:07:39;7.90;99.90
34147;DHT22;20423;49.448;9.056;2023-03-14T07:10:06;7.80;99.90
34147;DHT22;20423;49.448;9.056;2023-03-14T07:12:34;7.90;99.90
34147;DHT22;20423;49.448;9.056;2023-03-14T07:14:59;7.90;99.90
34147;DHT22;20423;49.448;9.056;2023-03-14T07:17:25;8.00;99.90
34147;DHT22;20423;49.448;9.056;2023-03-14T07:19:51;8.00;99.90
34147;DHT22;20423;49.448;9.056;2023-03-14T07:22:17;8.00;99.90
34147;DHT22;20423;49.448;9.056;2023-03-14T07:24:42;8.00;99.90
34147;DHT22;20423;49.448;9.056;2023-03-14T07:27:11;8.00;99.90
34147;DHT22;20423;49.448;9.056;2023-03-14T07:29:38;7.90;99.90
34147;DHT22;20423;49.448;9.056;2023-03-14T07:32:16;7.80;99.90
34147;DHT22;20423;49.448;9.056;2023-03-14T07:34:42;7.80;99.90
34147;DHT22;20423;49.448;9.056;2023-03-14T07:37:09;7.80;99.90
34147;DHT22;20423;49.448;9.056;2023-03-14T07:39:35;7.70;99.90
34147;DHT22;20423;49.448;9.056;2023-03-14T07:42:07;7.70;99.90
34147;DHT22;20423;49.448;9.056;2023-03-14T07:45:09;7.70;99.90
34147;DHT22;20423;49.448;9.056;2023-03-14T07:47:35;7.50;99.90
34147;DHT22;20423;49.448;9.056;2023-03-14T07:50:01;7.40;99.90
34147;DHT22;20423;49.448;9.056;2023-03-14T07:52:27;7.30;99.90
34147;DHT22;20423;49.448;9.056;2023-03-14T07:54:53;7.30;99.90
34147;DHT22;20423;49.448;9.056;2023-03-14T07:57:19;7.20;99.90
34147;DHT22;20423;49.448;9.056;2023-03-14T07:59:44;7.20;99.90
34147;DHT22;20423;49.448;9.056;2023-03-14T08:02:11;7.10;99.90
34147;DHT22;20423;49.448;9.056;2023-03-14T08:04:38;7.00;99.90
34147;DHT22;20423;49.448;9.056;2023-03-14T08:07:04;7.00;99.90
34147;DHT22;20423;49.448;9.056;2023-03-14T08:09:29;6.90;99.90
34147;DHT22;20423;49.448;9.056;2023-03-14T08:11:55;6.90;99.90
34147;DHT22;20423;49.448;9.056;2023-03-14T08:14:21;6.90;99.90
34147;DHT22;20423;49.448;9.056;2023-03-14T08:16:52;6.80;99.90
34147;DHT22;20423;49.448;9.056;2023-03-14T08:19:18;6.80;99.90
34147;DHT22;20423;49.448;9.056;2023-03-14T08:21:44;6.80;99.90
34147;DHT22;20423;49.448;9.056;2023-03-14T08:24:09;6.80;99.90
34147;DHT22;20423;49.448;9.056;2023-03-14T08:26:35;6.80;99.90
34147;DHT22;20423;49.448;9.056;2023-03-14T08:29:01;6.80;99.90
34147;DHT22;20423;49.448;9.056;2023-03-14T08:31:28;6.90;99.90
34147;DHT22;20423;49.448;9.056;2023-03-14T08:33:54;6.90;99.90
34147;DHT22;20423;49.448;9.056;2023-03-14T08:36:20;6.90;99.90
34147;DHT22;20423;49.448;9.056;2023-03-14T08:38:46;6.90;99.90
34147;DHT22;20423;49.448;9.056;2023-03-14T08:41:12;6.90;99.90
34147;DHT22;20423;49.448;9.056;2023-03-14T08:43:38;7.00;99.90
34147;DHT22;20423;49.448;9.056;2023-03-14T08:46:04;7.10;99.90
34147;DHT22;20423;49.448;9.056;2023-03-14T08:48:30;7.10;99.90
34147;DHT22;20423;49.448;9.056;2023-03-14T08:51:01;7.10;99.90
34147;DHT22;20423;49.448;9.056;2023-03-14T08:53:29;7.10;99.90
34147;DHT22;20423;49.448;9.056;2023-03-14T08:55:55;7.20;99.90
34147;DHT22;20423;49.448;9.056;2023-03-14T08:58:20;7.20;99.90
34147;DHT22;20423;49.448;9.056;2023-03-14T09:00:48;7.20;99.90
34147;DHT22;20423;49.448;9.056;2023-03-14T09:03:13;7.20;99.90
34147;DHT22;20423;49.448;9.056;2023-03-14T09:05:40;7.30;99.90
34147;DHT22;20423;49.448;9.056;2023-03-14T09:08:05;7.40;99.90
34147;DHT22;20423;49.448;9.056;2023-03-14T09:10:31;7.50;99.90
34147;DHT22;20423;49.448;9.056;2023-03-14T09:12:57;7.50;99.90
34147;DHT22;20423;49.448;9.056;2023-03-14T09:15:24;7.50;99.90
34147;DHT22;20423;49.448;9.056;2023-03-14T09:17:50;7.60;99.90
34147;DHT22;20423;49.448;9.056;2023-03-14T09:20:15;7.70;99.90
34147;DHT22;20423;49.448;9.056;2023-03-14T09:26:28;7.80;99.90
34147;DHT22;20423;49.448;9.056;2023-03-14T09:28:54;7.80;99.90
34147;DHT22;20423;49.448;9.056;2023-03-14T09:31:20;7.80;99.90
34147;DHT22;20423;49.448;9.056;2023-03-14T09:33:45;7.80;99.90
34147;DHT22;20423;49.448;9.056;2023-03-14T09:36:11;7.90;99.90
34147;DHT22;20423;49.448;9.056;2023-03-14T09:38:37;7.90;99.90
34147;DHT22;20423;49.448;9.056;2023-03-14T09:41:13;7.90;99.90
34147;DHT22;20423;49.448;9.056;2023-03-14T09:43:40;7.90;99.90
34147;DHT22;20423;49.448;9.056;2023-03-14T09:46:09;7.80;99.90
34147;DHT22;20423;49.448;9.056;2023-03-14T09:48:36;7.80;99.90
34147;DHT22;20423;49.448;9.056;2023-03-14T09:51:06;7.80;99.90
34147;DHT22;20423;49.448;9.056;2023-03-14T09:53:40;7.80;99.90
34147;DHT22;20423;49.448;9.056;2023-03-14T09:56:13;7.80;99.90
34147;DHT22;20423;49.448;9.056;2023-03-14T09:58:41;7.70;99.90
34147;DHT22;20423;49.448;9.056;2023-03-14T10:01:10;7.60;99.90
34147;DHT22;20423;49.448;9.056;2023-03-14T10:03:36;7.60;99.90
34147;DHT22;20423;49.448;9.056;2023-03-14T10:06:08;7.70;99.90
34147;DHT22;20423;49.448;9.056;2023-03-14T10:08:42;7.70;99.90
34147;DHT22;20423;49.448;9.056;2023-03-14T10:11:16;7.90;99.90
34147;DHT22;20423;49.448;9.056;2023-03-14T10:14:02;7.80;99.90
34147;DHT22;20423;49.448;9.056;2023-03-14T10:16:35;7.70;99.90
34147;DHT22;20423;49.448;9.056;2023-03-14T10:19:06;7.60;99.90
34147;DHT22;20423;49.448;9.056;2023-03-14T10:21:41;7.60;99.90
34147;DHT22;20423;49.448;9.056;2023-03-14T10:26:35;7.70;99.90
34147;DHT22;20423;49.448;9.056;2023-03-14T10:29:12;7.70;99.90
34147;DHT22;20423;49.448;9.056;2023-03-14T10:32:01;7.70;99.90
34147;DHT22;20423;49.448;9.056;2023-03-14T10:34:30;7.70;99.90
34147;DHT22;20423;49.448;9.056;2023-03-14T10:37:17;7.60;99.90
34147;DHT22;20423;49.448;9.056;2023-03-14T10:39:51;7.50;99.90
34147;DHT22;20423;49.448;9.056;2023-03-14T10:42:28;7.60;99.90
34147;DHT22;20423;49.448;9.056;2023-03-14T10:45:02;7.60;99.90
34147;DHT22;20423;49.448;9.056;2023-03-14T10:47:29;7.60;99.90
34147;DHT22;20423;49.448;9.056;2023-03-14T10:49:56;7.60;99.90
34147;DHT22;20423;49.448;9.056;2023-03-14T10:52:28;7.60;99.90
34147;DHT22;20423;49.448;9.056;2023-03-14T10:54:58;7.60;99.90
34147;DHT22;20423;49.448;9.056;2023-03-14T10:57:24;7.50;99.90
34147;DHT22;20423;49.448;9.056;2023-03-14T10:59:51;7.50;99.90
34147;DHT22;20423;49.448;9.056;2023-03-14T11:07:46;7.40;99.90
34147;DHT22;20423;49.448;9.056;2023-03-14T11:10:35;7.40;99.90
34147;DHT22;20423;49.448;9.056;2023-03-14T11:29:54;7.40;99.90
34147;DHT22;20423;49.448;9.056;2023-03-14T11:32:45;7.40;99.90
34147;DHT22;20423;49.448;9.056;2023-03-14T11:35:58;7.40;99.90
34147;DHT22;20423;49.448;9.056;2023-03-14T11:41:14;7.40;99.90
34147;DHT22;20423;49.448;9.056;2023-03-14T11:43:41;7.30;99.90
34147;DHT22;20423;49.448;9.056;2023-03-14T11:46:21;7.30;99.90
34147;DHT22;20423;49.448;9.056;2023-03-14T11:49:08;7.30;99.90
34147;DHT22;20423;49.448;9.056;2023-03-14T11:51:39;7.20;99.90
34147;DHT22;20423;49.448;9.056;2023-03-14T11:54:43;7.30;99.90
34147;DHT22;20423;49.448;9.056;2023-03-14T11:57:15;7.30;99.90
34147;DHT22;20423;49.448;9.056;2023-03-14T12:00:05;7.20;99.90
34147;DHT22;20423;49.448;9.056;2023-03-14T12:11:00;7.20;99.90
34147;DHT22;20423;49.448;9.056;2023-03-14T12:13:32;7.20;99.90
34147;DHT22;20423;49.448;9.056;2023-03-14T12:16:00;7.20;99.90
34147;DHT22;20423;49.448;9.056;2023-03-14T12:18:35;7.20;99.90
34147;DHT22;20423;49.448;9.056;2023-03-14T12:21:07;7.20;99.90
34147;DHT22;20423;49.448;9.056;2023-03-14T12:23:54;7.20;99.90
34147;DHT22;20423;49.448;9.056;2023-03-14T12:26:23;7.20;99.90
34147;DHT22;20423;49.448;9.056;2023-03-14T12:29:15;7.10;99.90
34147;DHT22;20423;49.448;9.056;2023-03-14T12:32:05;7.00;99.90
34147;DHT22;20423;49.448;9.056;2023-03-14T12:34:42;7.00;99.90
34147;DHT22;20423;49.448;9.056;2023-03-14T12:37:16;6.70;99.90
34147;DHT22;20423;49.448;9.056;2023-03-14T12:50:54;6.50;99.90
34147;DHT22;20423;49.448;9.056;2023-03-14T12:53:54;6.40;99.90
34147;DHT22;20423;49.448;9.056;2023-03-14T12:56:26;6.30;99.90
34147;DHT22;20423;49.448;9.056;2023-03-14T12:59:13;6.20;99.90
34147;DHT22;20423;49.448;9.056;2023-03-14T13:02:20;6.20;99.90
34147;DHT22;20423;49.448;9.056;2023-03-14T13:05:16;6.10;99.90
34147;DHT22;20423;49.448;9.056;2023-03-14T13:12:55;5.90;99.90
34147;DHT22;20423;49.448;9.056;2023-03-14T13:15:28;5.90;99.90
34147;DHT22;20423;49.448;9.056;2023-03-14T13:18:00;5.80;99.90
34147;DHT22;20423;49.448;9.056;2023-03-14T13:20:34;5.80;99.90
34147;DHT22;20423;49.448;9.056;2023-03-14T13:23:01;5.70;99.90
34147;DHT22;20423;49.448;9.056;2023-03-14T13:25:32;5.60;99.90
34147;DHT22;20423;49.448;9.056;2023-03-14T13:28:00;5.70;99.90
34147;DHT22;20423;49.448;9.056;2023-03-14T13:30:29;5.70;99.90
34147;DHT22;20423;49.448;9.056;2023-03-14T13:33:03;5.60;99.90
34147;DHT22;20423;49.448;9.056;2023-03-14T13:35:42;5.60;99.90
34147;DHT22;20423;49.448;9.056;2023-03-14T13:38:20;5.50;99.90
34147;DHT22;20423;49.448;9.056;2023-03-14T13:40:46;5.50;99.90
34147;DHT22;20423;49.448;9.056;2023-03-14T13:43:26;5.50;99.90
34147;DHT22;20423;49.448;9.056;2023-03-14T13:46:04;5.70;99.90
34147;DHT22;20423;49.448;9.056;2023-03-14T13:48:32;5.80;99.90
34147;DHT22;20423;49.448;9.056;2023-03-14T13:51:05;5.70;99.90
34147;DHT22;20423;49.448;9.056;2023-03-14T13:53:33;5.70;99.90
34147;DHT22;20423;49.448;9.056;2023-03-14T13:56:10;6.00;99.90
34147;DHT22;20423;49.448;9.056;2023-03-14T13:58:38;6.10;99.90
34147;DHT22;20423;49.448;9.056;2023-03-14T14:01:18;6.10;99.90
34147;DHT22;20423;49.448;9.056;2023-03-14T14:04:16;6.20;99.90
34147;DHT22;20423;49.448;9.056;2023-03-14T14:06:59;6.20;99.90
34147;DHT22;20423;49.448;9.056;2023-03-14T14:09:27;6.10;99.90
34147;DHT22;20423;49.448;9.056;2023-03-14T14:12:02;6.20;99.90
34147;DHT22;20423;49.448;9.056;2023-03-14T14:14:39;6.30;99.90
34147;DHT22;20423;49.448;9.056;2023-03-14T14:17:10;6.20;99.90
34147;DHT22;20423;49.448;9.056;2023-03-14T14:19:37;6.30;99.90
34147;DHT22;20423;49.448;9.056;2023-03-14T14:22:04;6.30;99.90
34147;DHT22;20423;49.448;9.056;2023-03-14T14:24:31;6.10;99.90
34147;DHT22;20423;49.448;9.056;2023-03-14T14:27:08;5.80;99.90
34147;DHT22;20423;49.448;9.056;2023-03-14T14:29:34;5.60;99.90
34147;DHT22;20423;49.448;9.056;2023-03-14T14:32:22;5.40;99.90
34147;DHT22;20423;49.448;9.056;2023-03-14T14:34:58;5.40;99.90
34147;DHT22;20423;49.448;9.056;2023-03-14T14:37:33;5.30;99.90
34147;DHT22;20423;49.448;9.056;2023-03-14T14:40:16;5.30;99.90
34147;DHT22;20423;49.448;9.056;2023-03-14T14:42:44;5.20;99.90
34147;DHT22;20423;49.448;9.056;2023-03-14T14:45:16;5.20;99.90
34147;DHT22;20423;49.448;9.056;2023-03-14T14:56:47;5.10;99.90
34147;DHT22;20423;49.448;9.056;2023-03-14T14:59:00;5.10;99.90
34147;DHT22;20423;49.448;9.056;2023-03-14T15:01:35;5.10;99.90
34147;DHT22;20423;49.448;9.056;2023-03-14T15:04:03;5.20;99.90
34147;DHT22;20423;49.448;9.056;2023-03-14T15:06:29;5.20;99.90
34147;DHT22;20423;49.448;9.056;2023-03-14T15:08:57;5.20;99.90
34147;DHT22;20423;49.448;9.056;2023-03-14T15:11:25;5.20;99.90
34147;DHT22;20423;49.448;9.056;2023-03-14T15:13:52;5.20;99.90
34147;DHT22;20423;49.448;9.056;2023-03-14T15:16:20;5.30;99.90
34147;DHT22;20423;49.448;9.056;2023-03-14T15:18:53;5.20;99.90
34147;DHT22;20423;49.448;9.056;2023-03-14T15:21:19;5.20;99.90
34147;DHT22;20423;49.448;9.056;2023-03-14T15:23:45;5.20;99.90
34147;DHT22;20423;49.448;9.056;2023-03-14T15:26:16;5.30;99.90
34147;DHT22;20423;49.448;9.056;2023-03-14T15:28:42;5.30;99.90
34147;DHT22;20423;49.448;9.056;2023-03-14T15:31:10;5.30;99.90
34147;DHT22;20423;49.448;9.056;2023-03-14T15:33:36;5.30;99.90
34147;DHT22;20423;49.448;9.056;2023-03-14T15:36:03;5.40;99.90
34147;DHT22;20423;49.448;9.056;2023-03-14T15:38:30;5.40;99.90
34147;DHT22;20423;49.448;9.056;2023-03-14T15:40:56;5.50;99.90
34147;DHT22;20423;49.448;9.056;2023-03-14T15:43:21;5.60;99.90
34147;DHT22;20423;49.448;9.056;2023-03-14T15:45:47;5.60;99.90
34147;DHT22;20423;49.448;9.056;2023-03-14T15:48:21;5.60;99.90
34147;DHT22;20423;49.448;9.056;2023-03-14T15:50:47;5.60;99.90
34147;DHT22;20423;49.448;9.056;2023-03-14T15:53:13;5.60;99.90
34147;DHT22;20423;49.448;9.056;2023-03-14T15:55:39;5.70;99.90
34147;DHT22;20423;49.448;9.056;2023-03-14T15:58:05;5.70;99.90
34147;DHT22;20423;49.448;9.056;2023-03-14T16:00:30;5.80;99.90
34147;DHT22;20423;49.448;9.056;2023-03-14T16:02:57;5.90;99.90
34147;DHT22;20423;49.448;9.056;2023-03-14T16:05:23;5.90;99.90
34147;DHT22;20423;49.448;9.056;2023-03-14T16:08:10;6.00;99.90
34147;DHT22;20423;49.448;9.056;2023-03-14T16:10:36;6.00;99.90
34147;DHT22;20423;49.448;9.056;2023-03-14T16:13:04;6.20;99.90
34147;DHT22;20423;49.448;9.056;2023-03-14T16:15:29;6.30;99.90
34147;DHT22;20423;49.448;9.056;2023-03-14T16:17:55;6.20;99.90
34147;DHT22;20423;49.448;9.056;2023-03-14T16:20:22;6.00;99.90
34147;DHT22;20423;49.448;9.056;2023-03-14T16:22:48;5.90;99.90
34147;DHT22;20423;49.448;9.056;2023-03-14T16:25:14;5.90;99.90
34147;DHT22;20423;49.448;9.056;2023-03-14T16:27:41;6.00;99.90
34147;DHT22;20423;49.448;9.056;2023-03-14T16:30:10;6.00;99.90
34147;DHT22;20423;49.448;9.056;2023-03-14T16:32:36;6.00;99.90
34147;DHT22;20423;49.448;9.056;2023-03-14T16:35:02;6.30;99.90
34147;DHT22;20423;49.448;9.056;2023-03-14T16:37:28;6.80;99.90
34147;DHT22;20423;49.448;9.056;2023-03-14T16:39:54;6.90;99.90
34147;DHT22;20423;49.448;9.056;2023-03-14T16:42:20;6.50;99.90
34147;DHT22;20423;49.448;9.056;2023-03-14T16:44:46;6.20;99.90
34147;DHT22;20423;49.448;9.056;2023-03-14T16:47:12;5.90;99.90
34147;DHT22;20423;49.448;9.056;2023-03-14T16:49:38;5.70;99.90
34147;DHT22;20423;49.448;9.056;2023-03-14T16:52:04;5.50;99.90
34147;DHT22;20423;49.448;9.056;2023-03-14T16:54:31;5.40;99.90
34147;DHT22;20423;49.448;9.056;2023-03-14T16:56:56;5.40;99.90
34147;DHT22;20423;49.448;9.056;2023-03-14T16:59:22;5.50;99.90
34147;DHT22;20423;49.448;9.056;2023-03-14T17:01:50;5.60;99.90
34147;DHT22;20423;49.448;9.056;2023-03-14T17:04:15;5.70;99.90
34147;DHT22;20423;49.448;9.056;2023-03-14T17:06:50;5.70;99.90
34147;DHT22;20423;49.448;9.056;2023-03-14T17:09:17;5.70;99.90
34147;DHT22;20423;49.448;9.056;2023-03-14T17:11:42;5.70;99.90
34147;DHT22;20423;49.448;9.056;2023-03-14T17:14:08;5.60;99.90
34147;DHT22;20423;49.448;9.056;2023-03-14T17:16:34;5.60;99.90
34147;DHT22;20423;49.448;9.056;2023-03-14T17:18:59;5.50;99.90